createdAt,value
2023-03-21T11:36:08.543Z,37.12
2023-03-21T11:38:39.855Z,38.08
2023-03-21T11:41:08.092Z,37.32
2023-03-21T11:43:37.891Z,36.42
2023-03-21T11:46:05.762Z,34.52
2023-03-21T11:48:39.410Z,37.14
2023-03-21T11:51:35.676Z,35.82
2023-03-21T11:54:25.378Z,36.09
2023-03-21T11:56:56.949Z,35.68
2023-03-21T11:59:27.050Z,36.15
2023-03-21T12:02:18.470Z,36.66
2023-03-21T12:05:21.045Z,34.13
2023-03-21T12:07:50.623Z,32.25
2023-03-21T12:10:33.427Z,32.02
2023-03-21T12:13:00.345Z,30.49
2023-03-21T12:15:43.194Z,29.98
2023-03-21T12:18:37.171Z,30.16
2023-03-21T12:21:14.477Z,30.33
2023-03-21T12:24:10.154Z,30.34
2023-03-21T12:26:53.044Z,30.88
2023-03-21T12:29:36.738Z,30.51
2023-03-21T12:32:46.755Z,32.73
2023-03-21T12:35:24.025Z,32.39
2023-03-21T12:38:14.183Z,34.74
2023-03-21T12:40:53.683Z,34.21
2023-03-21T12:43:46.558Z,31.40
2023-03-21T12:46:21.848Z,33.17
2023-03-21T12:48:58.551Z,31.02
2023-03-21T12:51:44.152Z,29.53
2023-03-21T12:54:27.000Z,29.45
2023-03-21T12:57:13.342Z,29.31
2023-03-21T12:59:50.518Z,30.05
2023-03-21T13:02:45.966Z,30.59
2023-03-21T13:05:31.982Z,32.81
2023-03-21T13:08:09.944Z,31.56
2023-03-21T13:10:37.514Z,33.25
2023-03-21T13:13:39.613Z,34.42
2023-03-21T13:16:27.500Z,32.74
2023-03-21T13:19:00.494Z,31.73
2023-03-21T13:21:55.449Z,31.30
2023-03-21T13:24:22.289Z,31.85
2023-03-21T13:26:51.555Z,29.68
2023-03-21T13:29:32.766Z,30.22
2023-03-21T13:32:09.719Z,28.64
2023-03-21T13:34:40.594Z,27.68
2023-03-21T13:37:15.741Z,27.45
2023-03-21T13:39:46.672Z,27.01
2023-03-21T13:42:34.048Z,27.76
2023-03-21T13:45:02.697Z,27.54
2023-03-21T13:47:52.458Z,27.91
2023-03-21T13:50:28.969Z,29.04
2023-03-21T13:53:02.262Z,28.69
2023-03-21T13:55:36.697Z,32.01
2023-03-21T13:58:31.817Z,33.44
2023-03-21T14:01:17.795Z,31.86
2023-03-21T14:03:50.023Z,31.83
2023-03-21T14:06:18.784Z,31.38
2023-03-21T14:08:49.091Z,30.73
2023-03-21T14:11:21.131Z,29.45
2023-03-21T14:13:51.710Z,28.77
2023-03-21T14:16:20.782Z,28.65
2023-03-21T14:18:56.242Z,26.86
2023-03-21T14:21:26.894Z,25.77
2023-03-21T14:24:03.451Z,25.75
2023-03-21T14:26:44.446Z,26.29
2023-03-21T14:29:26.241Z,26.44
2023-03-21T14:31:56.395Z,27.85
2023-03-21T14:34:26.257Z,28.52
2023-03-21T14:36:58.159Z,29.52
2023-03-21T14:39:31.527Z,28.82
2023-03-21T14:42:11.925Z,28.42
2023-03-21T14:44:53.809Z,29.16
2023-03-21T14:47:23.902Z,28.93
2023-03-21T14:49:51.895Z,30.92
2023-03-21T14:52:35.005Z,30.15
2023-03-21T14:55:06.279Z,29.33
2023-03-21T14:57:33.947Z,29.18
2023-03-21T15:00:12.824Z,29.80
2023-03-21T15:02:41.999Z,30.81
2023-03-21T15:05:11.008Z,31.97
2023-03-21T15:07:38.280Z,30.79
2023-03-21T15:10:25.424Z,32.05
2023-03-21T15:12:58.721Z,33.84
2023-03-21T15:15:28.337Z,33.87
2023-03-21T15:18:00.517Z,32.55
2023-03-21T15:20:34.184Z,33.58
2023-03-21T15:23:05.372Z,34.82
2023-03-21T15:25:36.415Z,34.99
2023-03-21T15:28:08.262Z,34.29
2023-03-21T15:30:36.434Z,34.38
2023-03-21T15:33:09.946Z,34.61
2023-03-21T15:35:43.259Z,34.32
2023-03-21T15:38:21.789Z,34.42
2023-03-21T15:40:49.000Z,34.81
2023-03-21T15:43:21.840Z,35.35
2023-03-21T15:45:55.457Z,35.61
2023-03-21T15:48:28.614Z,35.96
2023-03-21T15:50:56.762Z,36.02
2023-03-21T15:53:25.564Z,36.60
2023-03-21T15:56:03.337Z,36.54
2023-03-21T15:58:37.068Z,37.38
2023-03-21T16:01:07.185Z,37.82
2023-03-21T16:03:42.190Z,37.01
2023-03-21T16:06:15.050Z,37.99
2023-03-21T16:08:46.486Z,37.66
2023-03-21T16:11:23.201Z,37.62
2023-03-21T16:13:51.738Z,37.24
2023-03-21T16:16:27.413Z,37.83
2023-03-21T16:18:56.339Z,38.19
2023-03-21T16:21:28.706Z,38.04
2023-03-21T16:23:58.354Z,37.93
2023-03-21T16:26:30.803Z,38.53
2023-03-21T16:28:58.590Z,38.45
2023-03-21T16:31:31.048Z,39.02
2023-03-21T16:33:58.269Z,39.15
2023-03-21T16:36:32.003Z,38.77
2023-03-21T16:39:00.450Z,38.69
2023-03-21T16:41:29.772Z,38.29
2023-03-21T16:44:00.132Z,38.92
2023-03-21T16:46:28.402Z,38.59
2023-03-21T16:48:58.223Z,39.42
2023-03-21T16:51:31.588Z,39.33
2023-03-21T16:53:59.293Z,39.50
2023-03-21T16:56:51.696Z,40.15
2023-03-21T16:59:19.440Z,39.83
2023-03-21T17:01:48.445Z,40.04
2023-03-21T17:04:17.279Z,40.16
2023-03-21T17:06:53.947Z,40.42
2023-03-21T17:09:23.801Z,40.54
2023-03-21T17:11:51.599Z,40.78
2023-03-21T17:14:18.872Z,41.18
2023-03-21T17:16:46.381Z,41.31
2023-03-21T17:19:18.152Z,41.32
2023-03-21T17:21:45.999Z,42.26
2023-03-21T17:24:13.860Z,41.12
2023-03-21T17:26:42.990Z,42.10
2023-03-21T17:29:14.370Z,41.62
2023-03-21T17:31:42.618Z,41.14
2023-03-21T17:34:11.125Z,41.85
2023-03-21T17:36:40.577Z,41.46
2023-03-21T17:39:14.407Z,41.31
2023-03-21T17:42:18.326Z,41.14
2023-03-21T17:44:46.630Z,41.30
2023-03-21T17:47:13.580Z,41.29
2023-03-21T17:49:41.281Z,41.12
2023-03-21T17:52:08.828Z,41.20
2023-03-21T17:54:42.408Z,41.23
2023-03-21T17:57:12.476Z,41.46
2023-03-21T17:59:39.285Z,40.88
2023-03-21T18:02:08.116Z,41.08
2023-03-21T18:04:37.590Z,41.21
2023-03-21T18:07:06.908Z,41.26
2023-03-21T18:09:35.639Z,41.40
2023-03-21T18:12:02.611Z,42.03
2023-03-21T18:14:30.674Z,43.28
2023-03-21T18:16:59.752Z,43.33
2023-03-21T18:19:27.676Z,43.28
2023-03-21T18:21:55.114Z,43.42
2023-03-21T18:24:21.978Z,44.77
2023-03-21T18:26:48.917Z,46.74
2023-03-21T18:30:15.777Z,46.69
2023-03-21T18:32:08.033Z,45.31
2023-03-21T18:34:38.929Z,45.90
2023-03-21T18:37:08.175Z,46.74
2023-03-21T18:39:36.540Z,46.14
2023-03-21T18:42:05.632Z,46.34
2023-03-21T18:44:38.875Z,45.84
2023-03-21T18:47:07.366Z,47.20
2023-03-21T18:52:23.123Z,46.80
2023-03-21T18:54:50.383Z,46.84
2023-03-21T18:57:35.809Z,46.16
2023-03-21T19:00:16.987Z,46.34
2023-03-21T19:02:50.781Z,45.90
2023-03-21T19:05:20.422Z,46.59
2023-03-21T19:07:48.631Z,46.55
2023-03-21T19:10:20.214Z,46.82
2023-03-21T19:12:52.634Z,47.87
2023-03-21T19:15:21.947Z,48.88
2023-03-21T19:20:36.822Z,49.69
2023-03-21T19:23:03.885Z,48.33
2023-03-21T19:25:31.211Z,48.40
2023-03-21T19:27:58.141Z,47.73
2023-03-21T19:30:25.188Z,47.32
2023-03-21T19:32:52.034Z,47.09
2023-03-21T19:35:19.018Z,46.03
2023-03-21T19:37:46.839Z,46.26
2023-03-21T19:40:14.801Z,48.38
2023-03-21T19:42:43.138Z,50.08
2023-03-21T19:45:10.854Z,48.74
2023-03-21T19:47:37.703Z,47.20
2023-03-21T19:53:01.413Z,46.09
2023-03-21T19:55:28.497Z,46.69
2023-03-21T19:57:57.155Z,46.78
2023-03-21T20:00:24.714Z,47.69
2023-03-21T20:02:51.814Z,47.04
2023-03-21T20:05:25.638Z,47.89
2023-03-21T20:07:58.428Z,48.21
2023-03-21T20:10:28.282Z,49.29
2023-03-21T20:12:58.037Z,49.78
2023-03-21T20:15:26.909Z,50.00
2023-03-21T20:17:56.173Z,50.51
2023-03-21T20:20:24.103Z,51.36
2023-03-21T20:23:06.358Z,52.03
2023-03-21T20:25:34.878Z,52.33
2023-03-21T20:28:15.115Z,52.59
2023-03-21T20:30:53.244Z,52.79
2023-03-21T20:33:21.261Z,53.42
2023-03-21T20:38:37.439Z,52.26
2023-03-21T20:41:06.494Z,53.15
2023-03-21T20:44:28.172Z,52.05
2023-03-21T20:46:22.046Z,52.27
2023-03-21T20:48:49.756Z,52.89
2023-03-21T20:52:32.650Z,53.40
2023-03-21T20:54:11.698Z,52.86
2023-03-21T20:56:39.418Z,52.91
2023-03-21T20:59:17.659Z,52.89
2023-03-21T21:01:48.294Z,53.00
2023-03-21T21:04:20.234Z,53.40
2023-03-21T21:06:48.667Z,53.38
2023-03-21T21:09:17.369Z,53.02
2023-03-21T21:14:32.402Z,52.46
2023-03-21T21:17:22.506Z,52.69
2023-03-21T21:19:50.720Z,52.77
2023-03-21T21:22:17.872Z,52.46
2023-03-21T21:24:45.665Z,51.97
2023-03-21T21:27:12.822Z,50.91
2023-03-21T21:29:39.648Z,51.74
2023-03-21T21:32:06.463Z,50.73
2023-03-21T21:34:33.520Z,51.14
2023-03-21T21:37:00.657Z,50.61
2023-03-21T21:39:27.749Z,52.73
2023-03-21T21:41:54.974Z,52.39
2023-03-21T21:44:22.315Z,51.43
2023-03-21T21:46:49.234Z,51.88
2023-03-21T21:49:16.545Z,51.53
2023-03-21T21:51:44.230Z,52.37
2023-03-21T21:54:18.567Z,52.05
2023-03-21T21:56:49.168Z,52.94
2023-03-21T21:59:16.257Z,52.93
2023-03-21T22:01:43.160Z,53.09
2023-03-21T22:04:11.405Z,52.82
2023-03-21T22:06:38.278Z,52.23
2023-03-21T22:09:05.594Z,52.04
2023-03-21T22:11:32.961Z,51.39
2023-03-21T22:13:59.864Z,52.49
2023-03-21T22:16:26.773Z,52.57
2023-03-21T22:18:53.830Z,52.80
2023-03-21T22:21:20.704Z,52.86
2023-03-21T22:23:47.858Z,50.97
2023-03-21T22:26:15.026Z,51.46
2023-03-21T22:28:43.323Z,51.52
2023-03-21T22:31:16.256Z,51.06
2023-03-21T22:33:44.650Z,51.95
2023-03-21T22:36:12.160Z,51.94
2023-03-21T22:38:42.028Z,52.01
2023-03-21T22:41:09.577Z,52.20
2023-03-21T22:43:36.581Z,52.29
2023-03-21T22:46:04.495Z,51.90
2023-03-21T22:48:32.045Z,51.33
2023-03-21T22:51:02.121Z,50.31
2023-03-21T22:53:29.809Z,50.50
2023-03-21T22:55:57.986Z,51.79
2023-03-21T22:58:24.952Z,51.09
2023-03-21T23:00:51.986Z,51.62
2023-03-21T23:03:19.097Z,51.33
2023-03-21T23:05:46.009Z,52.17
2023-03-21T23:08:13.282Z,52.71
2023-03-21T23:10:43.879Z,52.31
2023-03-21T23:13:11.119Z,51.71
2023-03-21T23:15:38.780Z,52.28
2023-03-21T23:18:05.943Z,53.20
2023-03-21T23:20:32.866Z,53.00
2023-03-21T23:22:59.878Z,52.43
2023-03-21T23:25:29.048Z,51.79
2023-03-21T23:27:56.258Z,51.67
2023-03-21T23:30:23.438Z,51.64
2023-03-21T23:32:50.373Z,53.01
2023-03-21T23:35:17.342Z,53.08
2023-03-21T23:37:50.162Z,53.88
2023-03-21T23:40:17.170Z,53.53
2023-03-21T23:42:44.166Z,53.55
2023-03-21T23:45:11.849Z,54.08
2023-03-21T23:47:38.772Z,54.15
2023-03-21T23:50:07.883Z,54.11
2023-03-21T23:52:37.044Z,54.85
2023-03-21T23:55:05.570Z,54.22
2023-03-21T23:57:32.467Z,54.82
2023-03-21T23:59:59.677Z,54.86
